Time;durP1;ratioP1;P1;durP2;ratioP2;P2;SDS_P1;SDS_P2;PMS_P1;PMS_P2;Temp;Humidity;BMP_temperature;BMP_pressure;BME280_temperature;BME280_humidity;BME280_pressure;Samples;Min_cycle;Max_cycle;Signal;HPM_P1;HPM_P2
2023/02/08 00:01:22;;;;;;;28.20;16.83;;;;;;;-4.17;60.79;96159.53;4212917;28;20051;-52
2023/02/08 00:03:24;;;;;;;23.92;14.85;;;;;;;-4.18;60.09;96156.13;4213033;28;20058;-57
2023/02/08 00:05:25;;;;;;;24.77;15.82;;;;;;;-4.18;60.40;96166.34;4199943;28;20447;-54
2023/02/08 00:07:27;;;;;;;24.17;15.30;;;;;;;-4.26;60.13;96158.00;4210834;28;20437;-53
2023/02/08 00:09:29;;;;;;;23.33;14.52;;;;;;;-4.25;60.48;96163.97;4212833;28;20044;-53
2023/02/08 00:11:31;;;;;;;22.58;15.02;;;;;;;-4.19;60.29;96174.09;4211788;28;20078;-54
2023/02/08 00:13:33;;;;;;;23.52;15.15;;;;;;;-4.12;60.42;96163.66;4199785;28;20295;-53
2023/02/08 00:15:39;;;;;;;24.65;15.65;;;;;;;-4.08;60.37;96178.97;4196016;28;20500;-53
2023/02/08 00:17:41;;;;;;;25.98;15.95;;;;;;;-4.06;60.03;96180.59;4196297;28;20401;-55
2023/02/08 00:19:43;;;;;;;27.15;16.25;;;;;;;-4.02;59.56;96166.00;4195953;28;20060;-56
2023/02/08 00:21:44;;;;;;;24.27;15.48;;;;;;;-3.97;60.10;96172.72;4208545;28;20059;-55
2023/02/08 00:23:47;;;;;;;23.45;14.73;;;;;;;-3.96;59.94;96173.53;4212583;28;20044;-53
2023/02/08 00:25:48;;;;;;;25.15;15.50;;;;;;;-3.91;59.60;96164.06;4211894;28;20048;-54
2023/02/08 00:27:50;;;;;;;25.40;14.32;;;;;;;-3.91;59.14;96174.28;4201848;28;20051;-57
2023/02/08 00:29:52;;;;;;;22.65;14.82;;;;;;;-3.92;59.47;96177.72;4210221;28;20048;-56
2023/02/08 00:31:53;;;;;;;23.58;13.68;;;;;;;-3.91;59.44;96185.38;4204633;28;20043;-54
2023/02/08 00:33:55;;;;;;;25.27;15.10;;;;;;;-3.92;59.18;96177.72;4203770;28;20084;-55
2023/02/08 00:35:58;;;;;;;23.10;13.80;;;;;;;-3.89;59.50;96192.16;4210672;28;20058;-60
2023/02/08 00:38:00;;;;;;;24.15;14.82;;;;;;;-3.92;60.00;96185.41;4202430;28;20084;-60
2023/02/08 00:40:04;;;;;;;22.83;13.90;;;;;;;-3.87;59.61;96190.41;4211847;28;20093;-60
2023/02/08 00:42:06;;;;;;;23.65;14.38;;;;;;;-3.76;59.55;96198.72;4210819;28;20450;-62
2023/02/08 00:44:08;;;;;;;22.25;12.82;;;;;;;-3.82;58.71;96199.69;4201095;28;20048;-60
2023/02/08 00:46:09;;;;;;;26.27;13.65;;;;;;;-3.91;58.83;96207.59;4201368;28;20078;-59
2023/02/08 00:48:11;;;;;;;22.50;13.85;;;;;;;-3.87;59.38;96204.06;4212110;28;20121;-61
2023/02/08 00:50:13;;;;;;;23.83;13.63;;;;;;;-3.87;58.94;96203.22;4206844;28;20106;-62
2023/02/08 00:52:15;;;;;;;22.27;13.95;;;;;;;-3.79;58.81;96197.03;4198196;28;20098;-61
2023/02/08 00:54:18;;;;;;;23.35;14.52;;;;;;;-3.83;58.98;96205.69;4199374;28;20045;-61
2023/02/08 00:56:20;;;;;;;23.60;15.15;;;;;;;-3.76;59.44;96198.72;4198205;28;20048;-60
2023/02/08 00:58:22;;;;;;;23.42;13.98;;;;;;;-3.76;59.40;96191.84;4208752;28;20063;-59
2023/02/08 01:00:24;;;;;;;25.70;14.80;;;;;;;-3.73;59.17;96194.34;4197769;28;20098;-59
2023/02/08 01:02:26;;;;;;;20.80;13.25;;;;;;;-3.72;58.65;96193.47;4207934;28;20051;-58
2023/02/08 01:04:28;;;;;;;23.92;14.27;;;;;;;-3.71;59.55;96197.69;4201371;28;20508;-60
2023/02/08 01:06:30;;;;;;;24.15;14.48;;;;;;;-3.63;59.38;96205.22;4202204;28;20106;-60
2023/02/08 01:08:31;;;;;;;25.60;14.45;;;;;;;-3.65;58.77;96208.69;4205811;28;20402;-61
2023/02/08 01:10:33;;;;;;;26.58;14.80;;;;;;;-3.64;59.11;96205.25;4211448;28;20044;-58
2023/02/08 01:12:35;;;;;;;24.45;14.65;;;;;;;-3.60;59.02;96200.00;4211269;28;20056;-60
2023/02/08 01:14:38;;;;;;;24.23;14.35;;;;;;;-3.56;59.42;96201.63;4211007;28;20079;-59
2023/02/08 01:16:39;;;;;;;25.02;13.85;;;;;;;-3.60;58.67;96199.19;4211173;28;20044;-60
2023/02/08 01:18:42;;;;;;;25.73;14.73;;;;;;;-3.59;59.21;96200.84;4211736;28;20101;-60
2023/02/08 01:20:44;;;;;;;23.70;15.35;;;;;;;-3.60;59.27;96207.69;4207264;28;20044;-60
2023/02/08 01:22:47;;;;;;;27.50;16.08;;;;;;;-3.57;59.75;96206.78;4200214;28;20509;-59
2023/02/08 01:24:49;;;;;;;28.50;16.38;;;;;;;-3.51;59.58;96206.63;4204750;28;20485;-60
2023/02/08 01:26:50;;;;;;;26.27;16.15;;;;;;;-3.61;59.33;96203.47;4200719;28;20036;-60
2023/02/08 01:28:53;;;;;;;27.23;15.95;;;;;;;-3.57;59.80;96199.09;4208676;28;20468;-61
2023/02/08 01:30:55;;;;;;;29.63;16.73;;;;;;;-3.50;59.41;96200.66;4207441;28;20056;-60
2023/02/08 01:32:57;;;;;;;24.80;14.75;;;;;;;-3.64;59.63;96200.13;4208488;28;20791;-60
2023/02/08 01:34:58;;;;;;;27.15;16.00;;;;;;;-3.69;59.90;96199.41;4209624;28;20101;-60
2023/02/08 01:37:00;;;;;;;24.70;14.75;;;;;;;-3.68;59.64;96196.78;4211329;28;20568;-60
2023/02/08 01:39:03;;;;;;;24.85;14.23;;;;;;;-3.79;60.09;96201.31;4210081;28;20095;-61
2023/02/08 01:41:06;;;;;;;25.33;15.77;;;;;;;-3.76;60.02;96196.16;4208295;28;20086;-59
2023/02/08 01:43:21;;;;;;;27.70;15.55;;;;;;;-3.71;59.24;96194.31;4208601;28;20059;-59
2023/02/08 01:45:29;;;;;;;26.73;14.38;;;;;;;-3.69;60.09;96199.41;4207349;28;20048;-60
2023/02/08 01:47:31;;;;;;;25.98;14.93;;;;;;;-3.68;59.53;96203.63;4201807;28;20049;-62
2023/02/08 01:49:34;;;;;;;28.80;16.75;;;;;;;-3.66;59.84;96192.47;4210251;28;20052;-61
2023/02/08 01:51:54;;;;;;;28.15;16.00;;;;;;;-3.54;60.08;96209.28;4208420;28;20489;-60
2023/02/08 01:53:56;;;;;;;28.67;16.15;;;;;;;-3.65;58.99;96201.03;4210122;28;20044;-62
2023/02/08 01:56:00;;;;;;;23.63;14.10;;;;;;;-3.76;59.88;96204.66;4208921;28;20075;-59
2023/02/08 01:58:04;;;;;;;28.38;16.00;;;;;;;-3.71;60.17;96202.00;4205596;28;20239;-59
2023/02/08 02:00:20;;;;;;;29.98;16.52;;;;;;;-3.94;61.13;96213.63;4197168;28;20056;-59
2023/02/08 02:02:22;;;;;;;27.02;16.48;;;;;;;-3.91;60.89;96215.25;4198772;28;20092;-60
2023/02/08 02:04:24;;;;;;;30.73;17.83;;;;;;;-3.82;60.34;96212.47;4211166;28;20059;-60
2023/02/08 02:06:30;;;;;;;30.10;17.42;;;;;;;-3.77;60.56;96214.94;4206618;28;20055;-61
2023/02/08 02:08:32;;;;;;;30.73;17.13;;;;;;;-3.85;60.47;96221.94;4210028;28;20595;-62
2023/02/08 02:10:36;;;;;;;29.20;16.95;;;;;;;-3.81;60.66;96221.00;4211091;28;20505;-61
2023/02/08 02:12:39;;;;;;;29.40;18.48;;;;;;;-3.82;61.00;96227.00;4211183;28;20044;-61
2023/02/08 02:14:41;;;;;;;30.45;17.08;;;;;;;-3.78;61.41;96219.22;4212603;28;20055;-61
2023/02/08 02:16:43;;;;;;;26.10;16.90;;;;;;;-4.09;62.00;96224.16;4212163;28;20113;-56
2023/02/08 02:18:45;;;;;;;31.42;17.85;;;;;;;-4.04;62.53;96229.19;4214076;28;20051;-58
2023/02/08 02:21:06;;;;;;;30.08;17.98;;;;;;;-4.02;62.67;96237.66;4212514;28;20129;-57
2023/02/08 02:23:44;;;;;;;31.92;19.00;;;;;;;-4.01;62.54;96239.38;4202309;28;20114;-55
2023/02/08 02:26:08;;;;;;;30.15;18.98;;;;;;;-4.00;62.32;96234.22;4204461;28;20043;-55
2023/02/08 02:28:58;;;;;;;34.30;20.83;;;;;;;-3.95;63.30;96239.25;4212779;28;20211;-53
2023/02/08 02:31:21;;;;;;;32.60;20.33;;;;;;;-3.89;63.15;96244.22;4201956;28;20634;-55
2023/02/08 02:34:01;;;;;;;33.17;21.50;;;;;;;-3.85;62.93;96247.53;4197798;28;20036;-53
2023/02/08 02:36:05;;;;;;;32.53;19.33;;;;;;;-3.83;62.76;96248.34;4210371;28;20134;-56
2023/02/08 02:38:17;;;;;;;35.25;21.55;;;;;;;-3.84;63.46;96246.69;4197608;28;20167;-55
2023/02/08 02:40:27;;;;;;;34.95;21.48;;;;;;;-3.85;62.99;96250.97;4204758;28;20110;-53
2023/02/08 02:45:35;;;;;;;38.70;22.50;;;;;;;-3.72;64.22;96249.81;4188340;28;20052;-54
2023/02/08 02:47:44;;;;;;;34.40;21.63;;;;;;;-3.65;63.23;96249.69;4213711;28;20036;-53
2023/02/08 02:49:53;;;;;;;33.88;20.88;;;;;;;-3.61;63.84;96247.00;4212505;28;20048;-54
2023/02/08 02:52:06;;;;;;;33.50;19.00;;;;;;;-3.79;63.55;96255.94;4212185;28;20122;-54
2023/02/08 02:54:12;;;;;;;33.60;20.55;;;;;;;-3.78;63.84;96252.50;4212327;28;20048;-53
2023/02/08 02:56:42;;;;;;;33.83;19.75;;;;;;;-3.79;64.31;96257.66;4210156;28;20470;-54
2023/02/08 02:58:44;;;;;;;32.88;19.60;;;;;;;-3.77;64.28;96253.34;4203678;28;20067;-51
2023/02/08 03:00:57;;;;;;;35.42;20.85;;;;;;;-3.84;64.84;96255.19;4202859;28;20048;-52
2023/02/08 03:02:58;;;;;;;31.92;19.17;;;;;;;-3.97;64.93;96254.63;4212981;28;20474;-54
2023/02/08 03:05:00;;;;;;;36.35;19.98;;;;;;;-3.94;65.39;96256.28;4213195;28;20091;-52
2023/02/08 03:07:15;;;;;;;35.28;20.65;;;;;;;-3.89;65.64;96259.59;4212885;28;20062;-54
2023/02/08 03:09:37;;;;;;;35.50;20.70;;;;;;;-3.85;65.24;96265.47;4212196;28;20500;-55
2023/02/08 03:11:45;;;;;;;34.45;21.13;;;;;;;-3.88;65.97;96261.25;4185053;28;20060;-60
2023/02/08 03:14:03;;;;;;;35.45;22.70;;;;;;;-3.82;65.73;96268.81;4216679;28;20417;-58
2023/02/08 03:16:31;;;;;;;39.20;22.65;;;;;;;-3.84;65.58;96272.28;4205185;28;20104;-59
2023/02/08 03:18:38;;;;;;;38.17;22.50;;;;;;;-3.88;65.92;96270.66;4211699;28;20074;-58
2023/02/08 03:20:57;;;;;;;34.67;21.63;;;;;;;-3.91;65.69;96261.34;4212705;28;20056;-52
2023/02/08 03:23:14;;;;;;;39.58;22.50;;;;;;;-3.89;65.83;96264.72;4213590;28;20496;-54
2023/02/08 03:25:20;;;;;;;41.75;23.80;;;;;;;-3.95;65.84;96262.28;4200564;28;20105;-56
2023/02/08 03:27:33;;;;;;;36.75;22.17;;;;;;;-3.92;66.39;96257.09;4194926;28;20053;-52
2023/02/08 03:29:58;;;;;;;36.00;21.10;;;;;;;-3.87;65.78;96255.28;4208934;28;20059;-53
2023/02/08 03:32:03;;;;;;;36.88;22.45;;;;;;;-3.80;66.20;96250.88;4213265;28;20047;-53
2023/02/08 03:34:32;;;;;;;37.60;21.38;;;;;;;-3.82;65.74;96247.50;4211753;28;20044;-56
2023/02/08 03:36:57;;;;;;;38.88;23.83;;;;;;;-3.98;65.56;96244.41;4210562;28;20097;-54
2023/02/08 03:39:00;;;;;;;38.17;22.90;;;;;;;-4.01;66.13;96249.63;4212161;28;20468;-51
2023/02/08 03:41:05;;;;;;;37.92;22.80;;;;;;;-4.10;66.39;96253.22;4211286;28;20105;-51
2023/02/08 03:43:37;;;;;;;38.20;23.23;;;;;;;-4.07;66.50;96259.97;4210994;28;20131;-54
2023/02/08 03:45:42;;;;;;;39.70;23.70;;;;;;;-4.26;66.42;96260.34;4210097;28;20109;-53
2023/02/08 03:47:45;;;;;;;37.28;22.73;;;;;;;-4.27;67.11;96257.84;4212013;28;20406;-52
2023/02/08 03:49:51;;;;;;;42.03;24.13;;;;;;;-4.25;67.39;96258.66;4211440;28;20057;-60
2023/02/08 03:51:56;;;;;;;38.65;24.08;;;;;;;-4.22;67.39;96256.84;4208216;28;20475;-60
2023/02/08 03:54:00;;;;;;;37.20;24.13;;;;;;;-4.14;67.04;96254.97;4211477;28;20054;-61
2023/02/08 03:56:06;;;;;;;40.15;24.48;;;;;;;-4.03;66.60;96259.03;4200006;28;20435;-59
2023/02/08 03:58:16;;;;;;;40.40;24.10;;;;;;;-3.97;66.75;96264.03;4208640;28;20077;-60
2023/02/08 04:00:20;;;;;;;39.25;25.15;;;;;;;-3.91;66.20;96264.75;4198435;28;20101;-61
2023/02/08 04:02:25;;;;;;;40.35;25.25;;;;;;;-3.93;65.37;96261.38;4212531;28;20112;-59
2023/02/08 04:04:33;;;;;;;40.55;25.38;;;;;;;-3.85;66.00;96258.66;4205191;28;20449;-59
2023/02/08 04:06:35;;;;;;;39.05;24.33;;;;;;;-3.87;65.43;96262.09;4207075;28;20051;-55
2023/02/08 04:08:36;;;;;;;39.85;23.48;;;;;;;-3.88;65.48;96266.38;4209936;28;20051;-53
2023/02/08 04:10:38;;;;;;;38.40;23.35;;;;;;;-3.95;65.96;96257.16;4196091;28;20041;-55
2023/02/08 04:12:40;;;;;;;37.53;21.92;;;;;;;-3.93;65.72;96270.78;4205423;28;20486;-53
2023/02/08 04:14:42;;;;;;;39.75;23.55;;;;;;;-4.15;66.41;96267.81;4211879;28;20055;-58
2023/02/08 04:16:44;;;;;;;38.97;23.20;;;;;;;-4.22;67.21;96282.44;4199482;28;20602;-59
2023/02/08 04:18:45;;;;;;;37.35;22.25;;;;;;;-4.15;67.23;96278.03;4212844;28;20083;-58
2023/02/08 04:20:47;;;;;;;43.15;23.67;;;;;;;-4.42;67.60;96277.72;4212126;28;20071;-54
2023/02/08 04:22:49;;;;;;;38.63;23.63;;;;;;;-4.50;67.32;96278.75;4212050;28;20117;-57
2023/02/08 04:24:50;;;;;;;41.75;26.00;;;;;;;-4.80;68.66;96274.16;4199717;28;20140;-54
2023/02/08 04:26:52;;;;;;;40.80;25.45;;;;;;;-5.07;69.45;96284.91;4204798;28;20044;-53
2023/02/08 04:28:54;;;;;;;37.08;23.02;;;;;;;-5.19;70.02;96285.94;4195436;28;20049;-58
2023/02/08 04:30:55;;;;;;;41.17;25.80;;;;;;;-5.38;70.77;96281.13;4195827;28;20063;-56
2023/02/08 04:32:58;;;;;;;44.25;26.35;;;;;;;-5.36;71.11;96283.66;4208141;28;20049;-57
2023/02/08 04:35:00;;;;;;;46.63;27.52;;;;;;;-5.13;71.25;96290.94;4195650;28;20049;-53
2023/02/08 04:37:02;;;;;;;43.45;26.42;;;;;;;-4.88;70.57;96290.50;4194546;28;20056;-56
2023/02/08 04:39:03;;;;;;;40.42;25.58;;;;;;;-4.66;69.54;96286.72;4208842;28;20139;-53
2023/02/08 04:41:05;;;;;;;43.50;24.70;;;;;;;-4.43;68.88;96291.41;4210854;28;20047;-57
2023/02/08 04:43:07;;;;;;;46.85;27.02;;;;;;;-4.25;68.04;96297.88;4203492;28;20050;-56
2023/02/08 04:45:09;;;;;;;44.78;27.02;;;;;;;-4.12;67.93;96288.22;4199440;28;20134;-55
2023/02/08 04:47:11;;;;;;;40.95;25.98;;;;;;;-4.04;66.72;96285.50;4198925;28;20349;-54
2023/02/08 04:49:13;;;;;;;42.45;25.30;;;;;;;-4.01;67.04;96290.56;4207623;28;20053;-58
2023/02/08 04:51:14;;;;;;;41.45;25.35;;;;;;;-3.99;66.92;96292.22;4211646;28;20044;-57
2023/02/08 04:53:16;;;;;;;42.60;24.95;;;;;;;-3.97;66.51;96297.31;4205034;28;20133;-58
2023/02/08 04:55:18;;;;;;;42.97;24.77;;;;;;;-3.92;65.93;96298.03;4206079;28;20048;-58
2023/02/08 04:57:19;;;;;;;40.20;24.08;;;;;;;-3.89;65.21;96295.44;4210667;28;20052;-55
2023/02/08 04:59:21;;;;;;;41.35;25.90;;;;;;;-3.92;64.94;96298.03;4200971;28;20472;-56
2023/02/08 05:01:23;;;;;;;47.10;26.80;;;;;;;-4.03;65.47;96302.56;4203655;28;20056;-57
2023/02/08 05:03:24;;;;;;;45.63;27.15;;;;;;;-4.20;66.38;96315.69;4199114;28;20098;-57
2023/02/08 05:05:27;;;;;;;49.38;29.00;;;;;;;-4.44;66.92;96319.56;4205228;28;20056;-56
2023/02/08 05:07:29;;;;;;;45.03;27.40;;;;;;;-4.59;67.78;96331.75;4210077;28;20044;-58
2023/02/08 05:09:30;;;;;;;42.60;27.52;;;;;;;-4.61;67.81;96337.78;4211248;28;20134;-61
2023/02/08 05:11:32;;;;;;;45.15;26.23;;;;;;;-4.59;68.07;96330.91;4212138;28;20076;-58
2023/02/08 05:13:34;;;;;;;48.60;29.10;;;;;;;-4.51;68.63;96335.91;4208023;28;20110;-60
2023/02/08 05:15:35;;;;;;;44.88;26.58;;;;;;;-4.57;67.61;96340.25;4195704;28;20081;-58
2023/02/08 05:17:37;;;;;;;45.08;27.23;;;;;;;-4.87;69.04;96340.78;4196240;28;20053;-60
2023/02/08 05:19:39;;;;;;;44.53;27.63;;;;;;;-4.86;69.36;96351.00;4206319;28;20456;-53
2023/02/08 05:21:41;;;;;;;47.88;28.23;;;;;;;-4.76;69.32;96347.38;4209048;28;20056;-61
2023/02/08 05:23:42;;;;;;;47.05;28.70;;;;;;;-4.63;69.05;96340.34;4196370;28;20109;-57
2023/02/08 05:25:47;;;;;;;46.60;28.13;;;;;;;-4.65;68.36;96343.81;4196356;28;20131;-58
2023/02/08 05:27:48;;;;;;;50.83;30.50;;;;;;;-4.56;68.33;96346.19;4208940;28;20048;-58
2023/02/08 05:29:50;;;;;;;49.40;29.15;;;;;;;-4.43;68.04;96351.94;4195684;28;20497;-57
2023/02/08 05:31:52;;;;;;;49.55;29.45;;;;;;;-4.36;67.80;96350.97;4203295;28;20079;-59
2023/02/08 05:33:53;;;;;;;45.47;29.13;;;;;;;-4.29;67.13;96349.13;4201398;28;20045;-56
2023/02/08 05:35:55;;;;;;;45.72;29.05;;;;;;;-4.22;67.19;96353.25;4196373;28;20052;-56
2023/02/08 05:37:57;;;;;;;45.28;27.98;;;;;;;-4.13;66.37;96355.63;4212025;28;20043;-58
2023/02/08 05:39:58;;;;;;;43.67;26.60;;;;;;;-4.03;66.40;96358.88;4203574;28;20044;-57
2023/02/08 05:42:00;;;;;;;43.30;26.60;;;;;;;-4.00;65.98;96356.25;4207138;28;20683;-59
2023/02/08 05:44:02;;;;;;;46.70;27.58;;;;;;;-3.92;65.25;96359.50;4196352;28;20053;-60
2023/02/08 05:46:03;;;;;;;46.40;26.17;;;;;;;-3.84;65.08;96357.63;4200407;28;20058;-58
2023/02/08 05:48:05;;;;;;;43.08;25.05;;;;;;;-3.78;65.22;96359.22;4213229;28;20498;-57
2023/02/08 05:50:07;;;;;;;40.75;24.02;;;;;;;-3.75;64.21;96365.09;4211274;28;20545;-56
2023/02/08 05:52:09;;;;;;;41.58;23.63;;;;;;;-3.68;63.99;96370.09;4213301;28;20056;-56
2023/02/08 05:54:11;;;;;;;36.60;22.63;;;;;;;-3.68;64.50;96365.00;4201522;28;20123;-56
2023/02/08 05:56:12;;;;;;;42.75;22.10;;;;;;;-3.74;64.04;96371.94;4213727;28;20217;-57
2023/02/08 05:58:15;;;;;;;37.40;21.00;;;;;;;-3.76;64.01;96368.56;4206677;28;20425;-59
2023/02/08 06:00:16;;;;;;;40.20;23.17;;;;;;;-3.88;64.22;96373.09;4201479;28;20524;-55
2023/02/08 06:02:18;;;;;;;41.10;22.75;;;;;;;-3.86;64.71;96368.78;4210312;28;20440;-57
2023/02/08 06:04:20;;;;;;;41.42;24.42;;;;;;;-3.83;64.29;96369.56;4214221;28;20052;-58
2023/02/08 06:06:21;;;;;;;47.70;26.63;;;;;;;-3.94;64.02;96372.34;4203419;28;20048;-58
2023/02/08 06:08:23;;;;;;;48.30;27.70;;;;;;;-4.08;64.84;96365.81;4215093;28;20044;-56
2023/02/08 06:10:24;;;;;;;43.60;26.60;;;;;;;-4.23;65.52;96360.09;4202967;28;20140;-58
2023/02/08 06:12:26;;;;;;;47.72;27.63;;;;;;;-4.16;65.95;96359.09;4198909;28;20055;-59
2023/02/08 06:14:28;;;;;;;49.92;27.25;;;;;;;-4.00;66.00;96369.91;4203378;28;20040;-54
2023/02/08 06:16:29;;;;;;;45.25;28.02;;;;;;;-3.94;65.12;96366.34;4203363;28;20052;-58
2023/02/08 06:18:31;;;;;;;40.38;23.92;;;;;;;-3.75;64.96;96369.41;4210715;28;20105;-60
2023/02/08 06:20:33;;;;;;;45.33;26.20;;;;;;;-3.64;64.34;96370.00;4212350;28;20091;-59
2023/02/08 06:22:35;;;;;;;38.67;23.65;;;;;;;-3.55;63.52;96371.53;4213527;28;20394;-53
2023/02/08 06:24:36;;;;;;;45.70;26.15;;;;;;;-3.45;62.76;96380.72;4213671;28;20471;-56
2023/02/08 06:26:38;;;;;;;48.60;26.38;;;;;;;-3.39;63.01;96377.19;4214465;28;20056;-56
2023/02/08 06:28:40;;;;;;;47.25;25.90;;;;;;;-3.35;62.52;96369.41;4201136;28;20068;-61
2023/02/08 06:30:42;;;;;;;40.05;22.58;;;;;;;-3.26;62.04;96365.78;4213902;28;20044;-60
2023/02/08 06:32:44;;;;;;;45.75;25.75;;;;;;;-3.18;61.43;96375.88;4214846;28;20048;-59
2023/02/08 06:34:47;;;;;;;50.67;29.10;;;;;;;-3.21;60.92;96374.19;4213365;28;20083;-61
2023/02/08 06:36:48;;;;;;;44.95;25.15;;;;;;;-3.22;60.70;96371.69;4198287;28;20094;-63
2023/02/08 06:38:50;;;;;;;49.50;25.77;;;;;;;-3.17;61.14;96378.38;4198713;28;20048;-62
2023/02/08 06:40:52;;;;;;;47.38;25.73;;;;;;;-3.15;60.83;96381.75;4198798;28;20052;-62
2023/02/08 06:42:53;;;;;;;56.90;29.00;;;;;;;-3.14;61.13;96378.34;4210218;28;20048;-63
2023/02/08 06:44:56;;;;;;;47.50;25.35;;;;;;;-3.45;60.97;96382.44;4202001;28;20067;-63
2023/02/08 06:46:58;;;;;;;48.63;25.80;;;;;;;-3.49;61.47;96389.34;4214544;28;20710;-62
2023/02/08 06:49:00;;;;;;;45.83;24.40;;;;;;;-3.59;61.65;96391.28;4203384;28;20277;-63
2023/02/08 06:51:02;;;;;;;44.13;23.85;;;;;;;-3.68;61.59;96399.13;4212736;28;20113;-65
2023/02/08 06:53:03;;;;;;;44.17;24.05;;;;;;;-3.64;61.65;96394.78;4208707;28;20058;-62
2023/02/08 06:55:05;;;;;;;49.97;26.20;;;;;;;-4.19;61.16;96395.00;4197469;28;20049;-63
2023/02/08 06:57:07;;;;;;;41.63;23.80;;;;;;;-4.48;62.98;96394.69;4209778;28;20052;-62
2023/02/08 06:59:09;;;;;;;47.80;25.20;;;;;;;-4.82;63.96;96396.09;4204853;28;20105;-61
2023/02/08 07:01:12;;;;;;;36.58;21.33;;;;;;;-4.62;64.05;96392.38;4203129;28;20282;-61
2023/02/08 07:03:16;;;;;;;50.20;25.10;;;;;;;-4.55;63.50;96396.50;4214475;28;20171;-58
2023/02/08 07:05:17;;;;;;;;;;;;;;;-4.74;63.23;96408.75;4211946;28;20097;-62
2023/02/08 07:07:19;;;;;;;44.20;26.10;;;;;;;-4.80;63.35;96412.22;4213178;28;19920;-63
2023/02/08 07:09:21;;;;;;;43.72;27.27;;;;;;;-4.83;63.45;96406.34;4214152;28;20131;-63
2023/02/08 07:11:23;;;;;;;43.17;26.23;;;;;;;-4.97;63.19;96398.88;4213187;28;20055;-64
2023/02/08 07:13:24;;;;;;;34.95;22.38;;;;;;;-4.85;63.05;96401.25;4212256;28;20055;-63
2023/02/08 07:15:26;;;;;;;42.03;26.15;;;;;;;-4.50;63.08;96398.97;4212857;28;20076;-63
2023/02/08 07:17:28;;;;;;;36.08;22.10;;;;;;;-4.49;61.64;96400.69;4211458;28;20139;-61
2023/02/08 07:19:30;;;;;;;35.60;22.75;;;;;;;-4.92;63.15;96416.72;4213826;28;20048;-62
2023/02/08 07:21:31;;;;;;;39.28;24.10;;;;;;;-5.13;64.11;96416.16;4211301;28;20140;-64
2023/02/08 07:23:33;;;;;;;42.17;25.55;;;;;;;-5.16;64.10;96423.88;4211165;28;20131;-62
2023/02/08 07:25:35;;;;;;;40.85;25.33;;;;;;;-5.08;64.03;96424.59;4211404;28;20052;-62
2023/02/08 07:27:36;;;;;;;36.80;22.95;;;;;;;-4.88;64.21;96431.97;4209186;28;20048;-60
2023/02/08 07:29:38;;;;;;;41.53;25.25;;;;;;;-4.50;63.54;96422.00;4208931;28;20041;-63
2023/02/08 07:31:40;;;;;;;37.33;22.60;;;;;;;-4.50;61.65;96427.09;4210730;28;20177;-62
2023/02/08 07:33:42;;;;;;;33.63;20.10;;;;;;;-4.65;61.70;96435.88;4210158;28;20060;-63
2023/02/08 07:35:44;;;;;;;33.28;19.63;;;;;;;-4.85;61.53;96428.53;4209650;28;20075;-61
2023/02/08 07:37:45;;;;;;;32.42;19.33;;;;;;;-4.86;62.04;96431.94;4211281;28;20040;-64
2023/02/08 07:39:47;;;;;;;33.58;19.20;;;;;;;-4.82;61.65;96425.91;4210836;28;20044;-60
2023/02/08 07:41:49;;;;;;;27.23;17.20;;;;;;;-4.71;61.19;96435.97;4212324;28;20450;-63
2023/02/08 07:43:50;;;;;;;30.20;18.30;;;;;;;-4.67;60.95;96438.44;4212722;28;20203;-58
2023/02/08 07:45:52;;;;;;;34.65;19.67;;;;;;;-4.60;61.25;96437.50;4210032;28;20461;-58
2023/02/08 07:47:54;;;;;;;29.35;17.92;;;;;;;-4.38;60.33;96432.03;4211623;28;20052;-59
2023/02/08 07:49:56;;;;;;;31.13;19.20;;;;;;;-4.38;60.69;96432.03;4213558;28;20570;-57
2023/02/08 07:51:58;;;;;;;36.63;19.15;;;;;;;-4.35;60.41;96435.34;4212344;28;20580;-58
2023/02/08 07:54:00;;;;;;;32.67;19.50;;;;;;;-4.33;60.02;96436.16;4213007;28;20063;-57
2023/02/08 07:56:02;;;;;;;34.72;19.95;;;;;;;-4.16;60.21;96441.00;4213020;28;20505;-57
2023/02/08 07:58:04;;;;;;;31.40;19.55;;;;;;;-4.21;59.64;96437.69;4211008;28;20048;-60
2023/02/08 08:00:06;;;;;;;34.20;18.95;;;;;;;-4.26;59.81;96431.78;4198340;28;20098;-56
2023/02/08 08:02:08;;;;;;;32.25;19.42;;;;;;;-3.91;60.26;96435.44;4204339;28;20056;-57
2023/02/08 08:04:10;;;;;;;33.97;18.92;;;;;;;-3.83;59.21;96438.72;4204829;28;20138;-59
2023/02/08 08:06:12;;;;;;;31.27;17.20;;;;;;;-3.80;58.66;96430.97;4205039;28;20431;-55
2023/02/08 08:08:13;;;;;;;31.67;16.75;;;;;;;-3.61;58.13;96423.75;4206581;28;20118;-57
2023/02/08 08:10:15;;;;;;;33.15;18.10;;;;;;;-3.34;58.03;96422.31;4204316;28;20052;-59
2023/02/08 08:12:17;;;;;;;32.33;18.02;;;;;;;-3.05;56.97;96418.28;4212088;28;20052;-59
2023/02/08 08:14:19;;;;;;;34.05;18.35;;;;;;;-2.82;56.91;96422.03;4205716;28;20044;-56
2023/02/08 08:16:21;;;;;;;30.83;18.38;;;;;;;-2.78;55.33;96421.09;4212564;28;20055;-57
2023/02/08 08:18:23;;;;;;;33.97;16.65;;;;;;;-3.22;56.82;96422.97;4199650;28;20101;-59
2023/02/08 08:20:24;;;;;;;34.90;17.20;;;;;;;-3.17;58.02;96424.53;4212217;28;20060;-59
2023/02/08 08:22:26;;;;;;;34.22;17.77;;;;;;;-2.90;57.04;96417.94;4206151;28;20051;-57
2023/02/08 08:24:30;;;;;;;28.75;17.02;;;;;;;-2.51;56.46;96420.44;4205984;28;20055;-54
2023/02/08 08:26:32;;;;;;;;;;;;;;;-2.20;55.29;96419.66;4213233;28;20135;-62
2023/02/08 08:28:33;;;;;;;32.42;17.63;;;;;;;-2.06;54.19;96415.00;4205739;28;19947;-56
2023/02/08 08:30:35;;;;;;;35.67;17.55;;;;;;;-2.54;54.85;96424.78;4207979;28;20133;-58
2023/02/08 08:32:37;;;;;;;34.28;17.20;;;;;;;-2.95;55.25;96427.44;4205130;28;20079;-58
2023/02/08 08:34:38;;;;;;;29.15;17.15;;;;;;;-2.95;56.44;96424.03;4206881;28;20051;-59
2023/02/08 08:36:40;;;;;;;31.45;18.08;;;;;;;-2.95;56.16;96424.88;4204497;28;20052;-57
2023/02/08 08:38:42;;;;;;;32.03;17.48;;;;;;;-2.48;56.63;96429.78;4203286;28;20140;-57
2023/02/08 08:40:44;;;;;;;29.08;16.95;;;;;;;-2.52;55.30;96428.16;4205234;28;20049;-55
2023/02/08 08:42:45;;;;;;;38.65;17.58;;;;;;;-2.38;55.24;96417.56;4211895;28;20072;-55
2023/02/08 08:44:47;;;;;;;32.83;17.10;;;;;;;-2.38;55.59;96432.97;4210392;28;20055;-53
2023/02/08 08:46:48;;;;;;;35.60;17.60;;;;;;;-2.33;55.17;96437.09;4203823;28;20044;-57
2023/02/08 08:48:50;;;;;;;32.58;16.60;;;;;;;-2.14;55.37;96432.34;4212051;28;20091;-58
2023/02/08 08:50:53;;;;;;;33.78;15.95;;;;;;;-2.06;54.39;96432.16;4210926;28;20087;-56
2023/02/08 08:52:55;;;;;;;33.73;16.77;;;;;;;-1.95;53.99;96430.13;4210070;28;20072;-60
2023/02/08 08:54:57;;;;;;;49.53;22.88;;;;;;;-1.69;54.52;96432.00;4206569;28;20044;-57
2023/02/08 08:56:58;;;;;;;32.22;17.60;;;;;;;-1.96;54.25;96433.56;4211804;28;20052;-55
2023/02/08 08:59:00;;;;;;;34.60;16.08;;;;;;;-1.80;54.23;96440.91;4201093;28;20044;-55
2023/02/08 09:01:02;;;;;;;30.40;16.35;;;;;;;-1.54;53.48;96437.59;4200019;28;20071;-55
2023/02/08 09:03:04;;;;;;;30.98;16.25;;;;;;;-1.28;53.08;96434.28;4198895;28;20489;-55
2023/02/08 09:05:06;;;;;;;35.92;16.55;;;;;;;-1.14;52.11;96433.88;4211963;28;20524;-58
2023/02/08 09:07:09;;;;;;;35.20;17.67;;;;;;;-1.28;51.82;96439.44;4198435;28;20044;-56
2023/02/08 09:09:11;;;;;;;32.13;17.17;;;;;;;-1.63;52.31;96440.41;4212529;28;20120;-60
2023/02/08 09:11:14;;;;;;;29.15;16.95;;;;;;;-1.66;53.06;96441.34;4201298;28;20057;-62
2023/02/08 09:13:18;;;;;;;29.65;13.57;;;;;;;-1.98;52.71;96444.78;4196063;28;20410;-62
2023/02/08 09:15:20;;;;;;;27.15;14.27;;;;;;;-1.75;52.11;96441.59;4211484;28;20047;-63
2023/02/08 09:17:22;;;;;;;24.48;13.50;;;;;;;-1.45;52.08;96450.19;4212360;28;20047;-62
2023/02/08 09:19:23;;;;;;;20.38;12.90;;;;;;;-1.40;50.97;96447.47;4200293;28;20094;-62
2023/02/08 09:21:25;;;;;;;25.33;13.45;;;;;;;-1.93;52.06;96456.63;4210484;28;20054;-60
2023/02/08 09:23:27;;;;;;;26.05;14.70;;;;;;;-1.93;52.59;96443.78;4212189;28;20048;-60
2023/02/08 09:25:28;;;;;;;32.75;14.02;;;;;;;-1.61;53.16;96447.22;4211211;28;20436;-63
2023/02/08 09:27:30;;;;;;;29.25;16.65;;;;;;;-1.27;52.81;96449.69;4211571;28;20072;-64
2023/02/08 09:29:32;;;;;;;37.55;16.50;;;;;;;-1.10;52.88;96448.31;4211391;28;20120;-63
2023/02/08 09:31:36;;;;;;;25.98;13.02;;;;;;;-1.46;51.69;96456.22;4211004;28;20048;-65
2023/02/08 09:33:38;;;;;;;22.30;12.70;;;;;;;-1.31;51.59;96453.22;4211694;28;20575;-63